Time;durP1;ratioP1;P1;durP2;ratioP2;P2;SDS_P1;SDS_P2;PMS_P1;PMS_P2;Temp;Humidity;BMP_temperature;BMP_pressure;BME280_temperature;BME280_humidity;BME280_pressure;Samples;Min_cycle;Max_cycle;Signal;HPM_P1;HPM_P2
2022/12/06 00:02:01;;;;;;;29.63;26.45;;;;;;;-2.36;100.00;95913.41;5083292;28;20025;-60
2022/12/06 00:04:26;;;;;;;28.17;25.27;;;;;;;-2.36;100.00;95913.41;5082643;28;20034;-60
2022/12/06 00:06:52;;;;;;;28.02;24.70;;;;;;;-2.38;100.00;95904.88;5078025;28;20489;-60
2022/12/06 00:09:20;;;;;;;29.00;24.63;;;;;;;-2.39;100.00;95904.97;5077361;28;20024;-60
2022/12/06 00:11:46;;;;;;;27.27;23.55;;;;;;;-2.39;100.00;95916.09;5081960;28;20502;-60
2022/12/06 00:14:12;;;;;;;26.73;23.73;;;;;;;-2.37;100.00;95900.59;5078872;28;20119;-60
2022/12/06 00:16:37;;;;;;;25.70;23.05;;;;;;;-2.37;100.00;95909.16;5075566;28;20027;-60
2022/12/06 00:19:03;;;;;;;27.15;24.00;;;;;;;-2.40;100.00;95901.53;5072470;28;20027;-60
2022/12/06 00:21:34;;;;;;;26.63;23.48;;;;;;;-2.43;100.00;95906.81;5079383;28;20032;-64
2022/12/06 00:24:01;;;;;;;25.88;23.23;;;;;;;-2.43;100.00;95900.78;5084437;28;20027;-61
2022/12/06 00:26:27;;;;;;;26.20;23.50;;;;;;;-2.46;100.00;95900.00;5082066;28;20016;-65
2022/12/06 00:28:55;;;;;;;23.65;21.15;;;;;;;-2.47;100.00;95900.91;5074182;28;20119;-65
2022/12/06 00:31:22;;;;;;;28.52;24.85;;;;;;;-2.45;100.00;95893.13;5082863;28;20387;-65
2022/12/06 00:33:48;;;;;;;41.05;33.25;;;;;;;-2.49;100.00;95892.41;5081982;28;20665;-64
2022/12/06 00:36:15;;;;;;;41.13;31.80;;;;;;;-2.47;100.00;95889.78;5078139;28;20116;-65
2022/12/06 00:38:40;;;;;;;42.92;32.33;;;;;;;-2.49;100.00;95884.66;5079456;28;20055;-65
2022/12/06 00:41:09;;;;;;;48.33;33.63;;;;;;;-2.52;100.00;95887.34;5079717;28;20048;-72
2022/12/06 00:43:35;;;;;;;47.08;32.15;;;;;;;-2.59;100.00;95884.16;5078812;28;20031;-59
2022/12/06 00:46:01;;;;;;;89.47;48.97;;;;;;;-2.56;100.00;95884.94;5073003;28;20052;-61
2022/12/06 00:48:27;;;;;;;112.32;58.03;;;;;;;-2.55;100.00;95881.47;5084960;28;20052;-62
2022/12/06 00:50:52;;;;;;;115.90;57.33;;;;;;;-2.54;100.00;95883.16;5077705;28;20096;-61
2022/12/06 00:53:18;;;;;;;116.78;58.53;;;;;;;-2.49;100.00;95887.25;5080428;28;20081;-61
2022/12/06 00:55:44;;;;;;;116.40;55.50;;;;;;;-2.42;100.00;95892.19;5081274;28;20021;-61
2022/12/06 00:58:11;;;;;;;106.82;48.13;;;;;;;-2.38;100.00;95884.25;5073506;28;20056;-61
2022/12/06 01:00:37;;;;;;;111.25;47.53;;;;;;;-2.32;100.00;95880.63;5081591;28;20504;-60
2022/12/06 01:03:02;;;;;;;78.80;40.88;;;;;;;-2.29;100.00;95882.25;5071727;28;20028;-56
2022/12/06 01:05:29;;;;;;;72.65;39.88;;;;;;;-2.27;100.00;95872.72;5073479;28;20047;-56
2022/12/06 01:07:54;;;;;;;64.32;38.30;;;;;;;-2.28;100.00;95878.75;5083465;28;20035;-56
2022/12/06 01:10:20;;;;;;;63.40;32.80;;;;;;;-2.28;100.00;95876.19;5079722;28;20482;-58
2022/12/06 01:12:46;;;;;;;69.05;34.42;;;;;;;-2.30;100.00;95876.22;5074882;28;20525;-57
2022/12/06 01:15:12;;;;;;;74.68;31.45;;;;;;;-2.36;100.00;95874.72;5079472;28;20032;-56
2022/12/06 01:17:37;;;;;;;73.40;34.15;;;;;;;-2.43;100.00;95867.28;5075686;28;20078;-57
2022/12/06 01:20:04;;;;;;;117.18;40.90;;;;;;;-2.46;100.00;95868.25;5079860;28;20509;-60
2022/12/06 01:22:30;;;;;;;81.07;34.45;;;;;;;-2.57;100.00;95872.94;5078094;28;20039;-56
2022/12/06 01:24:55;;;;;;;51.50;35.05;;;;;;;-2.60;100.00;95873.94;5084045;28;20095;-65
2022/12/06 01:27:20;;;;;;;58.30;33.97;;;;;;;-2.64;100.00;95873.19;5072692;28;20024;-65
2022/12/06 01:29:46;;;;;;;48.40;31.52;;;;;;;-2.67;100.00;95880.19;5080524;28;20103;-64
2022/12/06 01:32:11;;;;;;;49.38;33.35;;;;;;;-2.72;100.00;95880.38;5083823;28;20016;-65
2022/12/06 01:34:37;;;;;;;61.65;42.30;;;;;;;-2.74;100.00;95877.00;5084517;28;20085;-64
2022/12/06 01:37:03;;;;;;;50.15;37.42;;;;;;;-2.70;100.00;95875.16;5078424;28;20422;-65
2022/12/06 01:39:28;;;;;;;46.10;36.70;;;;;;;-2.67;100.00;95881.03;5073511;28;20543;-60
2022/12/06 01:41:53;;;;;;;50.00;38.75;;;;;;;-2.64;100.00;95875.75;5078347;28;20060;-60
2022/12/06 01:44:44;;;;;;;53.67;37.42;;;;;;;-2.66;100.00;95874.13;5070155;28;20052;-60
2022/12/06 01:47:17;;;;;;;57.33;36.38;;;;;;;-2.69;100.00;95871.66;5078666;28;20028;-60
2022/12/06 01:49:48;;;;;;;55.17;34.28;;;;;;;-2.72;100.00;95870.06;5083135;28;20465;-60
2022/12/06 01:52:13;;;;;;;45.42;30.35;;;;;;;-2.73;100.00;95868.38;5080169;28;20490;-60
2022/12/06 01:54:39;;;;;;;47.58;32.95;;;;;;;-2.76;100.00;95866.75;5079021;28;20028;-60
2022/12/06 01:57:08;;;;;;;47.47;33.00;;;;;;;-2.80;100.00;95862.59;5084039;28;20032;-60
2022/12/06 01:59:34;;;;;;;44.33;30.92;;;;;;;-2.86;100.00;95861.97;5088941;28;20077;-72
2022/12/06 02:01:59;;;;;;;53.78;36.63;;;;;;;-2.86;100.00;95872.28;5079326;28;20085;-65
2022/12/06 02:04:26;;;;;;;65.72;45.20;;;;;;;-2.89;100.00;95868.06;5081565;28;20028;-65
2022/12/06 02:06:53;;;;;;;60.25;39.45;;;;;;;-2.93;100.00;95867.38;5079618;28;20024;-64
2022/12/06 02:09:19;;;;;;;51.25;36.28;;;;;;;-2.87;100.00;95866.31;5081104;28;20036;-65
2022/12/06 02:11:46;;;;;;;46.00;34.25;;;;;;;-2.90;100.00;95861.25;5079991;28;20089;-65
2022/12/06 02:14:16;;;;;;;42.53;32.28;;;;;;;-2.92;100.00;95863.91;5077627;28;20033;-64
2022/12/06 02:17:02;;;;;;;40.78;30.08;;;;;;;-2.88;100.00;95862.88;5083601;28;20042;-65
2022/12/06 02:20:02;;;;;;;45.08;32.55;;;;;;;-2.85;100.00;95863.66;5083657;28;20027;-61
2022/12/06 02:23:00;;;;;;;43.42;30.58;;;;;;;-2.83;100.00;95864.44;5090485;28;20437;-64
2022/12/06 02:25:57;;;;;;;71.22;25.33;;;;;;;-2.81;100.00;95863.50;5081065;28;20024;-64
2022/12/06 02:28:36;;;;;;;42.08;26.90;;;;;;;-2.83;100.00;95864.44;5082010;28;20059;-65
2022/12/06 02:31:08;;;;;;;46.60;26.17;;;;;;;-2.82;100.00;95860.97;5089244;28;20028;-64
2022/12/06 02:33:38;;;;;;;38.78;23.05;;;;;;;-2.95;100.00;95861.44;5079752;28;20093;-65
2022/12/06 02:36:12;;;;;;;31.67;23.80;;;;;;;-2.98;100.00;95855.53;5077443;28;20518;-65
2022/12/06 02:38:52;;;;;;;30.27;22.33;;;;;;;-2.99;100.00;95861.59;5081785;28;20043;-72
2022/12/06 02:41:34;;;;;;;24.92;21.20;;;;;;;-3.00;100.00;95859.91;5086867;28;20042;-56
2022/12/06 02:44:04;;;;;;;30.52;21.23;;;;;;;-3.00;100.00;95858.16;5088276;28;20025;-55
2022/12/06 02:46:34;;;;;;;51.80;19.83;;;;;;;-3.02;100.00;95865.09;5084497;28;20105;-55
2022/12/06 02:49:02;;;;;;;26.98;22.70;;;;;;;-3.04;100.00;95864.31;5086802;28;20160;-56
2022/12/06 02:51:31;;;;;;;28.90;22.08;;;;;;;-3.05;100.00;95862.66;5080916;28;20024;-56
2022/12/06 02:53:59;;;;;;;46.58;22.30;;;;;;;-3.05;100.00;95867.78;5085437;28;20382;-56
2022/12/06 02:56:25;;;;;;;28.48;21.73;;;;;;;-3.11;100.00;95857.72;5085736;28;20036;-66
2022/12/06 02:58:50;;;;;;;29.35;21.10;;;;;;;-3.15;100.00;95853.56;5071997;28;20035;-56
2022/12/06 03:01:27;;;;;;;27.30;21.23;;;;;;;-3.19;100.00;95848.53;5078282;28;20032;-55
2022/12/06 03:04:33;;;;;;;33.42;21.88;;;;;;;-3.13;100.00;95854.34;5089667;28;20830;-56
2022/12/06 03:07:30;;;;;;;23.38;20.98;;;;;;;-3.11;100.00;95844.84;5091279;28;20149;-56
2022/12/06 03:10:01;;;;;;;25.83;20.45;;;;;;;-3.08;100.00;95847.31;5091107;28;20528;-55
2022/12/06 03:12:53;;;;;;;29.95;21.50;;;;;;;-3.12;100.00;95851.72;5091457;28;20032;-55
2022/12/06 03:15:39;;;;;;;28.77;21.75;;;;;;;-3.15;100.00;95851.00;5080837;28;20099;-64
2022/12/06 03:18:13;;;;;;;26.17;20.13;;;;;;;-3.23;100.00;95844.38;5067130;28;20409;-71
2022/12/06 03:20:52;;;;;;;24.20;19.33;;;;;;;-3.21;100.00;95844.31;5077102;28;20528;-60
2022/12/06 03:23:23;;;;;;;25.10;18.20;;;;;;;-3.20;100.00;95839.13;5070879;28;20032;-60
2022/12/06 03:25:51;;;;;;;21.13;17.65;;;;;;;-3.15;100.00;95845.84;5073539;28;20031;-60
2022/12/06 03:28:19;;;;;;;23.73;19.60;;;;;;;-3.14;100.00;95843.19;5082349;28;20032;-60
2022/12/06 03:30:48;;;;;;;19.98;16.70;;;;;;;-3.14;100.00;95837.22;5090240;28;20028;-60
2022/12/06 03:33:16;;;;;;;23.13;17.60;;;;;;;-3.15;100.00;95835.53;5090604;28;20024;-60
2022/12/06 03:35:43;;;;;;;20.65;17.92;;;;;;;-3.20;100.00;95828.81;5090195;28;20603;-64
2022/12/06 03:38:13;;;;;;;22.42;17.98;;;;;;;-3.21;100.00;95834.03;5089926;28;20093;-73
2022/12/06 03:40:42;;;;;;;21.33;16.80;;;;;;;-3.26;100.00;95829.03;5082183;28;20048;-71
2022/12/06 03:43:09;;;;;;;26.23;18.10;;;;;;;-3.29;100.00;95838.63;5072698;28;20398;-71
2022/12/06 03:45:43;;;;;;;20.05;16.60;;;;;;;-3.26;100.00;95834.19;5088544;28;20032;-72
2022/12/06 03:48:31;;;;;;;19.17;15.75;;;;;;;-3.20;100.00;95833.13;5078480;28;20046;-71
2022/12/06 03:51:02;;;;;;;20.77;17.02;;;;;;;-3.18;100.00;95836.47;5082407;28;20507;-72
2022/12/06 03:53:27;;;;;;;22.10;16.50;;;;;;;-3.19;100.00;95833.09;5101797;28;20065;-72
2022/12/06 03:55:53;;;;;;;23.13;17.38;;;;;;;-3.19;100.00;95832.22;5090083;28;20132;-60
2022/12/06 03:58:18;;;;;;;33.50;18.10;;;;;;;-3.18;100.00;95826.19;5075973;28;20043;-64
2022/12/06 04:00:44;;;;;;;23.80;16.10;;;;;;;-3.20;100.00;95818.53;5089967;28;20020;-64
2022/12/06 04:03:09;;;;;;;23.35;16.52;;;;;;;-3.18;100.00;95826.19;5090033;28;20048;-64
2022/12/06 04:05:35;;;;;;;26.35;15.32;;;;;;;-3.20;100.00;95817.66;5090291;28;20024;-64
2022/12/06 04:08:00;;;;;;;21.50;17.02;;;;;;;-3.21;100.00;95821.16;5089038;28;20020;-64
2022/12/06 04:10:25;;;;;;;23.70;16.55;;;;;;;-3.15;100.00;95827.81;5079966;28;20048;-64
2022/12/06 04:12:59;;;;;;;39.63;16.38;;;;;;;-3.15;100.00;95825.25;5086147;28;20012;-64
2022/12/06 04:15:26;;;;;;;38.08;16.77;;;;;;;-3.23;100.00;95818.59;5089970;28;20052;-59
2022/12/06 04:18:09;;;;;;;20.17;16.58;;;;;;;-3.21;100.00;95821.97;5090302;28;20505;-60
2022/12/06 04:23:29;;;;;;;17.50;14.93;;;;;;;-3.24;100.00;95805.81;5080033;28;20081;-61
2022/12/06 04:25:55;;;;;;;29.15;16.05;;;;;;;-3.25;100.00;95801.56;5088943;28;20455;-61
2022/12/06 04:39:17;;;;;;;47.03;17.23;;;;;;;-3.22;100.00;95806.59;5085776;28;20451;-60
2022/12/06 04:44:26;;;;;;;29.92;17.33;;;;;;;-3.26;100.00;95795.53;5077541;28;20042;-59
2022/12/06 04:46:52;;;;;;;39.35;17.40;;;;;;;-3.29;100.00;95794.84;5082875;28;20111;-60
2022/12/06 04:49:17;;;;;;;25.10;17.92;;;;;;;-3.37;100.00;95789.97;5088734;28;20056;-60
2022/12/06 04:51:42;;;;;;;41.35;18.25;;;;;;;-3.37;100.00;95788.19;5087116;28;20823;-64
2022/12/06 04:54:08;;;;;;;19.95;16.10;;;;;;;-3.33;100.00;95788.94;5088831;28;20032;-60
2022/12/06 04:56:33;;;;;;;21.98;15.25;;;;;;;-3.31;100.00;95789.72;5096376;28;20393;-61
2022/12/06 04:58:59;;;;;;;21.45;16.40;;;;;;;-3.29;100.00;95793.09;5081033;28;20027;-61
2022/12/06 05:01:24;;;;;;;22.10;17.55;;;;;;;-3.30;100.00;95791.41;5090142;28;20068;-60
2022/12/06 05:03:49;;;;;;;25.02;19.13;;;;;;;-3.28;100.00;95789.63;5080783;28;20024;-61
2022/12/06 05:06:15;;;;;;;27.35;22.50;;;;;;;-3.31;100.00;95789.72;5069225;28;20514;-61
2022/12/06 05:08:40;;;;;;;21.73;18.52;;;;;;;-3.36;100.00;95787.31;5069074;28;20020;-61
2022/12/06 05:11:05;;;;;;;24.60;18.40;;;;;;;-3.36;100.00;95783.91;5076861;28;20153;-60
2022/12/06 05:13:31;;;;;;;27.42;20.40;;;;;;;-3.36;100.00;95796.78;5082892;28;20077;-64
2022/12/06 05:16:03;;;;;;;29.70;20.13;;;;;;;-3.41;100.00;95790.97;5078862;28;20077;-60
2022/12/06 05:18:29;;;;;;;22.70;19.38;;;;;;;-3.45;100.00;95798.78;5084160;28;20053;-61
2022/12/06 05:21:07;;;;;;;28.33;20.30;;;;;;;-3.46;100.00;95789.38;5073467;28;20428;-60
2022/12/06 05:23:33;;;;;;;20.30;17.33;;;;;;;-3.46;100.00;95791.13;5080095;28;20036;-60
2022/12/06 05:26:00;;;;;;;26.20;19.17;;;;;;;-3.47;100.00;95784.28;5093754;28;20028;-60
2022/12/06 05:28:25;;;;;;;23.45;17.50;;;;;;;-3.49;100.00;95792.06;5078603;28;20033;-60
2022/12/06 05:30:51;;;;;;;22.20;18.88;;;;;;;-3.46;100.00;95793.69;5070949;28;20024;-64
2022/12/06 05:33:16;;;;;;;26.55;19.83;;;;;;;-3.45;100.00;95787.66;5070393;28;20052;-72
2022/12/06 05:35:41;;;;;;;21.25;17.20;;;;;;;-3.47;100.00;95792.84;5071143;28;20071;-61
2022/12/06 05:38:07;;;;;;;36.28;20.77;;;;;;;-3.45;100.00;95797.94;5069916;28;20044;-62
2022/12/06 05:40:32;;;;;;;50.97;23.58;;;;;;;-3.39;100.00;95802.88;5070899;28;20035;-61
2022/12/06 05:42:57;;;;;;;36.72;24.30;;;;;;;-3.41;100.00;95801.25;5081626;28;20557;-60
2022/12/06 05:45:23;;;;;;;34.03;23.02;;;;;;;-3.49;100.00;95802.34;5083013;28;20024;-60
2022/12/06 05:47:48;;;;;;;31.60;21.73;;;;;;;-3.54;100.00;95804.25;5083061;28;20016;-61
2022/12/06 05:50:15;;;;;;;32.97;20.77;;;;;;;-3.57;100.00;95800.94;5088393;28;20048;-61
2022/12/06 05:52:40;;;;;;;25.33;19.52;;;;;;;-3.56;100.00;95800.03;5094420;28;20086;-73
2022/12/06 05:55:06;;;;;;;21.75;18.35;;;;;;;-3.55;100.00;95806.88;5085300;28;20039;-65
2022/12/06 05:57:32;;;;;;;20.90;18.55;;;;;;;-3.58;100.00;95806.97;5086402;28;20032;-64
2022/12/06 05:59:57;;;;;;;23.98;17.38;;;;;;;-3.61;100.00;95805.38;5087206;28;20401;-65
2022/12/06 06:02:23;;;;;;;21.35;17.17;;;;;;;-3.64;100.00;95813.19;5081999;28;20118;-65
2022/12/06 06:04:48;;;;;;;19.13;15.50;;;;;;;-3.65;100.00;95809.75;5086606;28;20078;-65
2022/12/06 06:07:13;;;;;;;17.38;14.00;;;;;;;-3.69;100.00;95810.78;5087186;28;20027;-65
2022/12/06 06:09:39;;;;;;;18.35;14.55;;;;;;;-3.70;100.00;95809.09;5086204;28;20068;-60
2022/12/06 06:12:04;;;;;;;20.20;18.05;;;;;;;-3.70;100.00;95815.97;5087303;28;20036;-62
2022/12/06 06:14:30;;;;;;;17.50;15.57;;;;;;;-3.69;100.00;95805.63;5086524;28;20027;-72
2022/12/06 06:16:55;;;;;;;24.35;18.23;;;;;;;-3.63;100.00;95796.84;5085273;28;20043;-73
2022/12/06 06:19:23;;;;;;;23.63;21.00;;;;;;;-3.58;100.00;95807.81;5090024;28;20039;-73
2022/12/06 06:21:48;;;;;;;22.80;20.27;;;;;;;-3.60;100.00;95804.47;5080090;28;20029;-72
2022/12/06 06:24:14;;;;;;;19.90;17.75;;;;;;;-3.66;100.00;95802.09;5081304;28;20386;-73
2022/12/06 06:26:39;;;;;;;23.60;18.65;;;;;;;-3.67;100.00;95802.97;5076598;28;20032;-73
2022/12/06 06:29:04;;;;;;;20.40;17.70;;;;;;;-3.70;100.00;95806.53;5075045;28;20024;-64
2022/12/06 06:31:30;;;;;;;25.92;20.98;;;;;;;-3.73;100.00;95806.63;5075541;28;20083;-60
2022/12/06 06:33:55;;;;;;;26.17;20.83;;;;;;;-3.67;100.00;95802.97;5078390;28;20031;-60
2022/12/06 06:36:21;;;;;;;27.65;21.80;;;;;;;-3.61;100.00;95813.09;5070995;28;20017;-60
2022/12/06 06:38:46;;;;;;;32.60;23.90;;;;;;;-3.66;100.00;95809.81;5072759;28;20032;-60
2022/12/06 06:41:11;;;;;;;34.40;26.20;;;;;;;-3.69;100.00;95815.06;5073356;28;21423;-61
2022/12/06 06:43:37;;;;;;;28.17;21.73;;;;;;;-3.57;100.00;95819.81;5079210;28;20477;-61
2022/12/06 06:46:07;;;;;;;38.45;29.25;;;;;;;-3.39;100.00;95822.63;5090043;28;20424;-60
2022/12/06 06:48:36;;;;;;;32.63;28.20;;;;;;;-3.13;100.00;95813.97;5080318;28;20441;-61
2022/12/06 06:51:07;;;;;;;36.05;28.38;;;;;;;-3.14;100.00;95814.03;5073944;28;20031;-61
2022/12/06 06:53:32;;;;;;;49.20;34.85;;;;;;;-3.19;100.00;95815.06;5078662;28;20032;-61
2022/12/06 06:55:58;;;;;;;48.65;33.90;;;;;;;-3.29;100.00;95813.69;5091733;28;20028;-60
2022/12/06 06:58:24;;;;;;;42.17;28.85;;;;;;;-3.43;100.00;95815.91;5074919;28;20047;-61
2022/12/06 07:01:01;;;;;;;45.70;27.63;;;;;;;-3.46;100.00;95809.13;5074732;28;20418;-60
2022/12/06 07:03:27;;;;;;;57.13;35.72;;;;;;;-3.56;100.00;95805.19;5073925;28;20571;-60
2022/12/06 07:05:56;;;;;;;41.13;30.23;;;;;;;-3.57;100.00;95808.66;5073058;28;20017;-60
2022/12/06 07:08:21;;;;;;;46.20;33.17;;;;;;;-3.57;100.00;95809.50;5071390;28;20039;-64
2022/12/06 07:10:47;;;;;;;49.95;31.23;;;;;;;-3.55;100.00;95806.88;5074486;28;20024;-72
2022/12/06 07:13:24;;;;;;;54.55;28.38;;;;;;;-3.57;100.00;95803.50;5083255;28;20076;-75
2022/12/06 07:15:49;;;;;;;68.38;29.05;;;;;;;-3.58;100.00;95802.69;5090940;28;20028;-72
2022/12/06 07:18:16;;;;;;;72.10;33.38;;;;;;;-3.63;100.00;95810.56;5091573;28;20509;-71
2022/12/06 07:20:42;;;;;;;80.45;47.10;;;;;;;-3.69;100.00;95812.50;5082635;28;20587;-72
2022/12/06 07:23:07;;;;;;;74.90;49.30;;;;;;;-3.70;100.00;95814.25;5081713;28;20067;-73
2022/12/06 07:25:33;;;;;;;68.50;42.15;;;;;;;-3.70;100.00;95815.97;5074057;28;20044;-64
2022/12/06 07:27:58;;;;;;;61.95;38.03;;;;;;;-3.70;100.00;95823.69;5080293;28;20103;-63
2022/12/06 07:30:24;;;;;;;53.60;31.10;;;;;;;-3.72;100.00;95817.75;5082023;28;20021;-61
2022/12/06 07:32:49;;;;;;;45.83;31.10;;;;;;;-3.75;100.00;95824.69;5082152;28;20013;-60
2022/12/06 07:35:15;;;;;;;46.50;30.65;;;;;;;-3.79;100.00;95819.69;5081876;28;20028;-60
2022/12/06 07:37:44;;;;;;;42.70;31.80;;;;;;;-3.79;100.00;95835.13;5078486;28;20048;-61
2022/12/06 07:40:11;;;;;;;49.22;31.50;;;;;;;-3.76;100.00;95828.16;5076753;28;20032;-61
2022/12/06 07:45:21;;;;;;;33.05;25.85;;;;;;;-3.79;100.00;95835.13;5079914;28;20264;-61
2022/12/06 07:47:46;;;;;;;31.95;26.70;;;;;;;-3.79;100.00;95840.25;5075311;28;20103;-63
2022/12/06 07:50:15;;;;;;;32.40;25.65;;;;;;;-3.80;100.00;95838.56;5079558;28;20024;-64
2022/12/06 07:52:40;;;;;;;32.20;25.05;;;;;;;-3.78;100.00;95834.22;5075744;28;20025;-64
2022/12/06 07:55:07;;;;;;;29.80;25.05;;;;;;;-3.77;100.00;95849.63;5080545;28;20519;-64
2022/12/06 07:57:33;;;;;;;28.15;23.45;;;;;;;-3.74;100.00;95848.69;5080752;28;20047;-64
2022/12/06 07:59:58;;;;;;;40.72;31.50;;;;;;;-3.72;100.00;95834.03;5073705;28;20023;-64
2022/12/06 08:02:25;;;;;;;44.20;35.08;;;;;;;-3.72;100.00;95830.59;5090831;28;20027;-64
2022/12/06 08:04:51;;;;;;;49.05;35.85;;;;;;;-3.72;100.00;95826.31;5087728;28;20013;-57
2022/12/06 08:07:17;;;;;;;54.58;36.33;;;;;;;-3.73;100.00;95824.63;5071385;28;20079;-61
2022/12/06 08:09:42;;;;;;;94.65;50.42;;;;;;;-3.71;100.00;95825.44;5084473;28;20048;-60
2022/12/06 08:12:08;;;;;;;90.32;54.17;;;;;;;-3.68;100.00;95821.88;5071249;28;20406;-60
2022/12/06 08:14:35;;;;;;;103.32;59.25;;;;;;;-3.68;100.00;95817.59;5074679;28;20028;-60
2022/12/06 08:17:00;;;;;;;99.05;56.15;;;;;;;-3.62;100.00;95824.28;5080423;28;20444;-60
2022/12/06 08:19:26;;;;;;;84.38;50.17;;;;;;;-3.57;100.00;95822.38;5087822;28;20024;-60
2022/12/06 08:21:51;;;;;;;89.10;52.80;;;;;;;-3.56;100.00;95821.47;5090556;28;20409;-60
2022/12/06 08:24:17;;;;;;;87.88;53.88;;;;;;;-3.56;100.00;95818.91;5090048;28;20027;-64
2022/12/06 08:26:43;;;;;;;81.72;49.25;;;;;;;-3.54;100.00;95822.28;5090390;28;20391;-64
2022/12/06 08:29:08;;;;;;;85.40;55.28;;;;;;;-3.52;100.00;95817.91;5074527;28;20035;-62
2022/12/06 08:31:34;;;;;;;99.93;59.65;;;;;;;-3.48;100.00;95818.66;5070936;28;20035;-62
2022/12/06 08:34:00;;;;;;;93.45;57.03;;;;;;;-3.47;100.00;95826.31;5071660;28;20019;-63
2022/12/06 08:36:27;;;;;;;94.38;56.30;;;;;;;-3.46;100.00;95822.84;5062884;28;20035;-62
2022/12/06 08:38:53;;;;;;;84.68;52.75;;;;;;;-3.46;100.00;95827.97;5070593;28;20081;-62
2022/12/06 08:44:04;;;;;;;86.60;55.25;;;;;;;-3.46;100.00;95822.84;5070492;28;20406;-62
2022/12/06 08:46:32;;;;;;;84.25;40.35;;;;;;;-3.42;100.00;95820.19;5070096;28;20060;-65
2022/12/06 08:48:58;;;;;;;73.93;40.97;;;;;;;-3.40;100.00;95815.81;5070529;28;20024;-65
2022/12/06 08:51:23;;;;;;;107.35;54.22;;;;;;;-3.40;100.00;95811.50;5070421;28;20024;-65
2022/12/06 08:53:50;;;;;;;116.65;63.17;;;;;;;-3.36;100.00;95813.06;5070274;28;20024;-64
2022/12/06 08:56:16;;;;;;;152.63;79.97;;;;;;;-3.29;100.00;95813.69;5082829;28;20032;-65
2022/12/06 08:58:41;;;;;;;165.82;84.95;;;;;;;-3.21;100.00;95816.81;5071588;28;20477;-65
2022/12/06 09:01:16;;;;;;;184.27;84.68;;;;;;;-3.12;100.00;95814.81;5089717;28;20036;-65
2022/12/06 09:03:42;;;;;;;170.93;78.25;;;;;;;-3.07;100.00;95823.22;5077343;28;20016;-60
2022/12/06 09:06:08;;;;;;;160.07;75.50;;;;;;;-3.02;100.00;95827.31;5088544;28;20103;-60
2022/12/06 09:08:34;;;;;;;176.07;76.50;;;;;;;-2.96;100.00;95834.00;5069678;28;20072;-60
2022/12/06 09:10:59;;;;;;;117.07;55.97;;;;;;;-2.88;100.00;95836.25;5083061;28;20034;-60
2022/12/06 09:13:24;;;;;;;124.25;59.00;;;;;;;-2.83;100.00;95842.09;5089308;28;20027;-60
2022/12/06 09:15:50;;;;;;;107.82;53.45;;;;;;;-2.73;100.00;95847.75;5088445;28;20265;-60
2022/12/06 09:18:15;;;;;;;203.30;55.45;;;;;;;-2.60;100.00;95845.56;5089202;28;20067;-60
2022/12/06 09:20:41;;;;;;;136.13;52.47;;;;;;;-2.46;100.00;95850.19;5075603;28;20040;-60
2022/12/06 09:23:07;;;;;;;155.93;53.88;;;;;;;-2.36;100.00;95848.94;5069694;28;20421;-56
2022/12/06 09:25:33;;;;;;;110.07;53.95;;;;;;;-2.22;100.00;95847.56;5070899;28;20134;-65
2022/12/06 09:27:59;;;;;;;121.72;57.83;;;;;;;-2.06;100.00;95858.13;5093945;28;20447;-65
2022/12/06 09:30:25;;;;;;;133.52;60.40;;;;;;;-1.81;100.00;95857.13;5075283;28;20028;-65
2022/12/06 09:32:52;;;;;;;124.55;65.40;;;;;;;-1.60;100.00;95858.00;5086458;28;20020;-65
2022/12/06 09:35:18;;;;;;;104.15;62.20;;;;;;;-1.37;100.00;95857.03;5073683;28;20511;-65
2022/12/06 09:37:44;;;;;;;73.47;48.45;;;;;;;-1.17;100.00;95848.44;5073789;28;20032;-65
2022/12/06 09:40:19;;;;;;;64.82;48.33;;;;;;;-0.91;100.00;95851.63;5074006;28;20036;-65
2022/12/06 09:43:06;;;;;;;64.70;46.58;;;;;;;-0.74;100.00;95847.47;5082471;28;20016;-60
2022/12/06 09:46:01;;;;;;;52.50;43.17;;;;;;;-0.62;100.00;95841.72;5092838;28;20039;-60
2022/12/06 09:48:44;;;;;;;43.33;33.23;;;;;;;-0.43;100.00;95840.88;5091804;28;20481;-60
2022/12/06 09:51:37;;;;;;;31.05;27.73;;;;;;;-0.38;100.00;95845.84;5092670;28;20020;-60
2022/12/06 09:54:37;;;;;;;25.77;23.15;;;;;;;-0.12;100.00;95836.84;5092850;28;20027;-60
2022/12/06 09:57:27;;;;;;;28.58;24.10;;;;;;;0.07;100.00;95836.84;5088632;28;20085;-60
2022/12/06 10:00:13;;;;;;;37.53;33.60;;;;;;;0.42;100.00;95839.44;5093043;28;20103;-66
2022/12/06 10:02:50;;;;;;;23.08;19.95;;;;;;;0.57;100.00;95834.41;5081077;28;20013;-60
2022/12/06 10:05:29;;;;;;;20.73;18.27;;;;;;;0.77;100.00;95830.78;5072945;28;20024;-55
2022/12/06 10:08:02;;;;;;;21.42;18.30;;;;;;;0.91;100.00;95829.25;5086061;28;20085;-56
2022/12/06 10:10:52;;;;;;;20.40;18.35;;;;;;;1.01;100.00;95827.88;5083238;28;20028;-56
2022/12/06 10:13:49;;;;;;;25.50;22.27;;;;;;;1.15;100.00;95819.38;5079504;28;20031;-54
2022/12/06 10:16:39;;;;;;;18.08;16.13;;;;;;;1.39;100.00;95821.59;5092383;28;20390;-57
2022/12/06 10:19:32;;;;;;;15.02;13.50;;;;;;;1.57;100.00;95810.22;5092404;28;20032;-70
2022/12/06 10:22:15;;;;;;;8.20;7.40;;;;;;;1.66;100.00;95805.44;5092280;28;20111;-60
2022/12/06 10:25:08;;;;;;;6.30;5.80;;;;;;;1.75;100.00;95812.69;5092105;28;20081;-57
2022/12/06 10:27:58;;;;;;;11.73;10.40;;;;;;;1.86;100.00;95804.31;5092105;28;20521;-57
2022/12/06 10:30:24;;;;;;;21.58;15.77;;;;;;;1.98;100.00;95807.97;5091595;28;20042;-56
2022/12/06 10:33:02;;;;;;;11.60;10.13;;;;;;;2.11;100.00;95803.78;5088751;28;20095;-56
2022/12/06 10:35:40;;;;;;;6.57;5.97;;;;;;;2.20;100.00;95796.38;5089479;28;20557;-57
2022/12/06 10:38:29;;;;;;;5.55;5.10;;;;;;;2.33;100.00;95786.13;5092380;28;20075;-56
2022/12/06 10:41:16;;;;;;;4.72;3.78;;;;;;;2.53;100.00;95792.75;5089559;28;20501;-62
2022/12/06 10:44:01;;;;;;;5.82;5.22;;;;;;;2.64;100.00;95789.53;5088282;28;20036;-62
2022/12/06 10:49:31;;;;;;;5.90;5.28;;;;;;;2.75;100.00;95774.09;5080312;28;20038;-62
2022/12/06 10:52:15;;;;;;;;;;;;;;;2.91;100.00;95781.00;5088001;28;20028;-63
2022/12/06 10:55:13;;;;;;;3.75;3.53;;;;;;;3.04;100.00;95778.50;5088720;28;20416;-63
2022/12/06 10:58:16;;;;;;;4.50;4.20;;;;;;;2.92;100.00;95774.88;5078068;28;20502;-62
2022/12/06 11:01:00;;;;;;;9.57;8.70;;;;;;;3.08;100.00;95767.81;5072006;28;20089;-59
2022/12/06 11:03:29;;;;;;;13.65;12.32;;;;;;;3.01;100.00;95766.53;5090227;28;20019;-57
2022/12/06 11:06:10;;;;;;;8.70;7.85;;;;;;;2.97;100.00;95765.00;5078266;28;20040;-58
2022/12/06 11:08:40;;;;;;;6.68;6.07;;;;;;;3.03;100.00;95764.66;5072350;28;20028;-58
2022/12/06 11:11:16;;;;;;;5.85;5.25;;;;;;;3.12;100.00;95763.28;5072752;28;20058;-58
2022/12/06 11:13:49;;;;;;;5.90;3.90;;;;;;;3.21;100.00;95769.69;5072234;28;20052;-58
2022/12/06 11:16:25;;;;;;;4.40;4.00;;;;;;;3.45;100.00;95756.88;5076544;28;20044;-58
2022/12/06 11:18:55;;;;;;;4.40;4.00;;;;;;;3.64;100.00;95761.75;5091301;28;20028;-62
2022/12/06 11:21:30;;;;;;;4.90;4.50;;;;;;;3.72;99.53;95762.13;5091249;28;20097;-67
2022/12/06 11:24:02;;;;;;;4.63;4.30;;;;;;;3.87;98.83;95760.28;5091239;28;20062;-67
2022/12/06 11:26:45;;;;;;;3.45;3.25;;;;;;;3.93;98.05;95753.84;5091415;28;20031;-67
2022/12/06 11:29:12;;;;;;;6.95;6.35;;;;;;;3.88;96.46;95753.31;5091288;28;20097;-67
2022/12/06 11:31:48;;;;;;;10.00;9.13;;;;;;;3.90;97.19;95753.22;5091748;28;20497;-67
2022/12/06 11:34:25;;;;;;;5.88;5.40;;;;;;;4.05;97.88;95751.38;5091197;28;20031;-68
2022/12/06 11:36:53;;;;;;;6.10;4.88;;;;;;;4.29;96.61;95749.75;5076691;28;20051;-60
2022/12/06 11:39:19;;;;;;;5.63;5.18;;;;;;;4.30;94.97;95746.22;5071260;28;20111;-58
2022/12/06 11:41:48;;;;;;;5.05;4.75;;;;;;;4.48;93.44;95745.09;5071127;28;20095;-61
2022/12/06 11:44:26;;;;;;;4.43;4.13;;;;;;;4.45;93.08;95743.53;5071435;28;20090;-61
2022/12/06 11:46:57;;;;;;;5.25;4.85;;;;;;;4.24;93.35;95735.38;5071094;28;20016;-60
2022/12/06 11:49:44;;;;;;;5.47;5.00;;;;;;;4.30;93.37;95734.97;5080785;28;20032;-60
2022/12/06 11:52:15;;;;;;;8.52;6.40;;;;;;;4.15;93.57;95737.63;5071199;28;20074;-60